sensor_id;sensor_type;location;lat;lon;timestamp;P1;durP1;ratioP1;P2;durP2;ratioP2
10985;SDS011;5546;48.714;8.738;2023-03-16T00:01:03;62.03;;;12.13;;
10985;SDS011;5546;48.714;8.738;2023-03-16T00:03:51;51.43;;;11.70;;
10985;SDS011;5546;48.714;8.738;2023-03-16T00:07:20;22.37;;;10.80;;
10985;SDS011;5546;48.714;8.738;2023-03-16T00:09:49;54.90;;;10.00;;
10985;SDS011;5546;48.714;8.738;2023-03-16T00:12:25;26.13;;;10.67;;
10985;SDS011;5546;48.714;8.738;2023-03-16T00:18:34;41.70;;;10.03;;
10985;SDS011;5546;48.714;8.738;2023-03-16T00:21:12;34.47;;;10.90;;
10985;SDS011;5546;48.714;8.738;2023-03-16T00:23:39;68.17;;;12.50;;
10985;SDS011;5546;48.714;8.738;2023-03-16T00:26:06;25.17;;;9.77;;
10985;SDS011;5546;48.714;8.738;2023-03-16T00:28:43;58.33;;;10.27;;
10985;SDS011;5546;48.714;8.738;2023-03-16T00:31:09;36.47;;;9.37;;
10985;SDS011;5546;48.714;8.738;2023-03-16T00:34:10;32.87;;;9.73;;
10985;SDS011;5546;48.714;8.738;2023-03-16T00:37:00;45.30;;;9.07;;
10985;SDS011;5546;48.714;8.738;2023-03-16T00:39:46;54.77;;;10.20;;
10985;SDS011;5546;48.714;8.738;2023-03-16T00:42:47;23.10;;;8.70;;
10985;SDS011;5546;48.714;8.738;2023-03-16T00:45:13;12.87;;;9.13;;
10985;SDS011;5546;48.714;8.738;2023-03-16T00:47:41;12.77;;;9.03;;
10985;SDS011;5546;48.714;8.738;2023-03-16T00:50:07;12.70;;;7.97;;
10985;SDS011;5546;48.714;8.738;2023-03-16T00:52:33;20.50;;;8.07;;
10985;SDS011;5546;48.714;8.738;2023-03-16T00:54:59;12.37;;;8.17;;
10985;SDS011;5546;48.714;8.738;2023-03-16T00:57:27;19.07;;;8.37;;
10985;SDS011;5546;48.714;8.738;2023-03-16T00:59:54;19.47;;;8.37;;
10985;SDS011;5546;48.714;8.738;2023-03-16T01:02:20;21.57;;;8.63;;
10985;SDS011;5546;48.714;8.738;2023-03-16T01:05:05;51.80;;;9.10;;
10985;SDS011;5546;48.714;8.738;2023-03-16T01:07:33;55.93;;;9.53;;
10985;SDS011;5546;48.714;8.738;2023-03-16T01:10:03;32.73;;;7.60;;
10985;SDS011;5546;48.714;8.738;2023-03-16T01:12:49;11.00;;;8.00;;
10985;SDS011;5546;48.714;8.738;2023-03-16T01:18:05;13.37;;;8.43;;
10985;SDS011;5546;48.714;8.738;2023-03-16T01:20:54;13.27;;;7.67;;
10985;SDS011;5546;48.714;8.738;2023-03-16T01:23:33;19.77;;;8.83;;
10985;SDS011;5546;48.714;8.738;2023-03-16T01:26:11;56.77;;;10.37;;
10985;SDS011;5546;48.714;8.738;2023-03-16T01:28:39;18.70;;;8.17;;
10985;SDS011;5546;48.714;8.738;2023-03-16T01:31:15;15.37;;;8.07;;
10985;SDS011;5546;48.714;8.738;2023-03-16T01:33:53;41.33;;;8.17;;
10985;SDS011;5546;48.714;8.738;2023-03-16T01:36:22;21.67;;;8.60;;
10985;SDS011;5546;48.714;8.738;2023-03-16T01:38:48;16.70;;;8.00;;
10985;SDS011;5546;48.714;8.738;2023-03-16T01:41:16;29.97;;;8.60;;
10985;SDS011;5546;48.714;8.738;2023-03-16T01:44:05;35.87;;;8.90;;
10985;SDS011;5546;48.714;8.738;2023-03-16T01:46:38;20.40;;;8.03;;
10985;SDS011;5546;48.714;8.738;2023-03-16T01:49:32;40.73;;;9.23;;
10985;SDS011;5546;48.714;8.738;2023-03-16T01:52:11;60.40;;;9.50;;
10985;SDS011;5546;48.714;8.738;2023-03-16T01:54:48;29.30;;;8.20;;
10985;SDS011;5546;48.714;8.738;2023-03-16T01:57:19;36.90;;;8.20;;
10985;SDS011;5546;48.714;8.738;2023-03-16T02:02:23;24.50;;;7.70;;
10985;SDS011;5546;48.714;8.738;2023-03-16T02:07:38;6.67;;;5.83;;
10985;SDS011;5546;48.714;8.738;2023-03-16T02:10:13;7.87;;;5.47;;
10985;SDS011;5546;48.714;8.738;2023-03-16T02:12:40;6.57;;;5.03;;
10985;SDS011;5546;48.714;8.738;2023-03-16T02:15:07;7.77;;;5.30;;
10985;SDS011;5546;48.714;8.738;2023-03-16T02:17:33;7.10;;;5.63;;
10985;SDS011;5546;48.714;8.738;2023-03-16T02:22:58;6.60;;;5.07;;
10985;SDS011;5546;48.714;8.738;2023-03-16T02:25:28;7.40;;;5.67;;
10985;SDS011;5546;48.714;8.738;2023-03-16T02:30:34;6.57;;;5.17;;
10985;SDS011;5546;48.714;8.738;2023-03-16T02:33:00;7.17;;;5.30;;
10985;SDS011;5546;48.714;8.738;2023-03-16T02:35:28;7.13;;;5.43;;
10985;SDS011;5546;48.714;8.738;2023-03-16T02:37:55;6.33;;;5.60;;
10985;SDS011;5546;48.714;8.738;2023-03-16T02:42:47;7.50;;;5.97;;
10985;SDS011;5546;48.714;8.738;2023-03-16T02:45:18;8.23;;;5.63;;
10985;SDS011;5546;48.714;8.738;2023-03-16T02:47:45;8.83;;;6.70;;
10985;SDS011;5546;48.714;8.738;2023-03-16T02:50:15;7.63;;;5.87;;
10985;SDS011;5546;48.714;8.738;2023-03-16T02:52:41;9.33;;;5.93;;
10985;SDS011;5546;48.714;8.738;2023-03-16T02:55:07;8.60;;;5.80;;
10985;SDS011;5546;48.714;8.738;2023-03-16T02:57:33;8.67;;;6.67;;
10985;SDS011;5546;48.714;8.738;2023-03-16T02:59:59;7.33;;;6.57;;
10985;SDS011;5546;48.714;8.738;2023-03-16T03:02:25;8.13;;;6.10;;
10985;SDS011;5546;48.714;8.738;2023-03-16T03:04:51;6.50;;;5.50;;
10985;SDS011;5546;48.714;8.738;2023-03-16T03:07:18;10.00;;;6.53;;
10985;SDS011;5546;48.714;8.738;2023-03-16T03:09:45;8.63;;;6.47;;
10985;SDS011;5546;48.714;8.738;2023-03-16T03:12:11;8.43;;;6.27;;
10985;SDS011;5546;48.714;8.738;2023-03-16T03:14:37;12.27;;;6.87;;
10985;SDS011;5546;48.714;8.738;2023-03-16T03:17:07;9.17;;;7.47;;
10985;SDS011;5546;48.714;8.738;2023-03-16T03:19:34;10.10;;;7.13;;
10985;SDS011;5546;48.714;8.738;2023-03-16T03:22:00;13.60;;;8.87;;
10985;SDS011;5546;48.714;8.738;2023-03-16T03:24:33;12.97;;;8.30;;
10985;SDS011;5546;48.714;8.738;2023-03-16T03:26:59;12.70;;;8.43;;
10985;SDS011;5546;48.714;8.738;2023-03-16T03:29:29;13.60;;;7.90;;
10985;SDS011;5546;48.714;8.738;2023-03-16T03:32:01;9.87;;;7.37;;
10985;SDS011;5546;48.714;8.738;2023-03-16T03:34:28;14.50;;;8.30;;
10985;SDS011;5546;48.714;8.738;2023-03-16T03:36:55;12.73;;;7.87;;
10985;SDS011;5546;48.714;8.738;2023-03-16T03:39:21;13.30;;;8.70;;
10985;SDS011;5546;48.714;8.738;2023-03-16T03:41:47;11.03;;;7.97;;
10985;SDS011;5546;48.714;8.738;2023-03-16T03:44:13;12.43;;;8.70;;
10985;SDS011;5546;48.714;8.738;2023-03-16T03:46:39;11.73;;;8.17;;
10985;SDS011;5546;48.714;8.738;2023-03-16T03:49:04;14.17;;;8.93;;
10985;SDS011;5546;48.714;8.738;2023-03-16T03:51:30;10.87;;;7.97;;
10985;SDS011;5546;48.714;8.738;2023-03-16T03:53:57;13.13;;;8.77;;
10985;SDS011;5546;48.714;8.738;2023-03-16T03:56:23;13.60;;;9.13;;
10985;SDS011;5546;48.714;8.738;2023-03-16T03:58:49;13.73;;;8.10;;
10985;SDS011;5546;48.714;8.738;2023-03-16T04:01:15;15.50;;;8.70;;
10985;SDS011;5546;48.714;8.738;2023-03-16T04:03:41;11.57;;;8.80;;
10985;SDS011;5546;48.714;8.738;2023-03-16T04:06:07;13.90;;;9.20;;
10985;SDS011;5546;48.714;8.738;2023-03-16T04:08:33;12.80;;;9.03;;
10985;SDS011;5546;48.714;8.738;2023-03-16T04:10:59;16.80;;;9.70;;
10985;SDS011;5546;48.714;8.738;2023-03-16T04:13:25;14.30;;;9.77;;
10985;SDS011;5546;48.714;8.738;2023-03-16T04:16:00;15.57;;;9.60;;
10985;SDS011;5546;48.714;8.738;2023-03-16T04:18:26;15.53;;;9.60;;
10985;SDS011;5546;48.714;8.738;2023-03-16T04:20:52;14.83;;;9.07;;
10985;SDS011;5546;48.714;8.738;2023-03-16T04:23:19;16.07;;;10.13;;
10985;SDS011;5546;48.714;8.738;2023-03-16T04:25:45;13.17;;;9.50;;
10985;SDS011;5546;48.714;8.738;2023-03-16T04:28:10;14.87;;;9.83;;
10985;SDS011;5546;48.714;8.738;2023-03-16T04:30:36;16.60;;;10.20;;
10985;SDS011;5546;48.714;8.738;2023-03-16T04:33:02;16.23;;;9.93;;
10985;SDS011;5546;48.714;8.738;2023-03-16T04:35:28;14.10;;;9.83;;
10985;SDS011;5546;48.714;8.738;2023-03-16T04:37:55;15.37;;;9.63;;
10985;SDS011;5546;48.714;8.738;2023-03-16T04:40:21;18.27;;;9.50;;
10985;SDS011;5546;48.714;8.738;2023-03-16T04:42:47;15.13;;;10.37;;
10985;SDS011;5546;48.714;8.738;2023-03-16T04:45:14;12.57;;;8.90;;
10985;SDS011;5546;48.714;8.738;2023-03-16T04:47:41;13.50;;;9.20;;
10985;SDS011;5546;48.714;8.738;2023-03-16T04:50:08;13.90;;;9.07;;
10985;SDS011;5546;48.714;8.738;2023-03-16T04:52:34;15.30;;;9.07;;
10985;SDS011;5546;48.714;8.738;2023-03-16T04:55:00;14.37;;;10.20;;
10985;SDS011;5546;48.714;8.738;2023-03-16T04:57:26;13.17;;;9.30;;
10985;SDS011;5546;48.714;8.738;2023-03-16T04:59:52;15.73;;;9.53;;
10985;SDS011;5546;48.714;8.738;2023-03-16T05:02:18;12.57;;;9.27;;
10985;SDS011;5546;48.714;8.738;2023-03-16T05:04:44;13.03;;;9.57;;
10985;SDS011;5546;48.714;8.738;2023-03-16T05:07:10;13.67;;;9.53;;
10985;SDS011;5546;48.714;8.738;2023-03-16T05:09:36;12.93;;;9.27;;
10985;SDS011;5546;48.714;8.738;2023-03-16T05:12:02;12.00;;;8.97;;
10985;SDS011;5546;48.714;8.738;2023-03-16T05:14:28;11.80;;;8.77;;
10985;SDS011;5546;48.714;8.738;2023-03-16T05:16:55;14.40;;;10.50;;
10985;SDS011;5546;48.714;8.738;2023-03-16T05:19:20;11.70;;;9.20;;
10985;SDS011;5546;48.714;8.738;2023-03-16T05:21:46;13.50;;;9.50;;
10985;SDS011;5546;48.714;8.738;2023-03-16T05:24:13;13.13;;;9.57;;
10985;SDS011;5546;48.714;8.738;2023-03-16T05:26:38;15.67;;;9.40;;
10985;SDS011;5546;48.714;8.738;2023-03-16T05:29:04;13.57;;;9.83;;
10985;SDS011;5546;48.714;8.738;2023-03-16T05:31:30;14.90;;;9.80;;
10985;SDS011;5546;48.714;8.738;2023-03-16T05:33:56;16.80;;;10.47;;
10985;SDS011;5546;48.714;8.738;2023-03-16T05:36:22;12.80;;;9.23;;
10985;SDS011;5546;48.714;8.738;2023-03-16T05:38:48;16.17;;;10.73;;
10985;SDS011;5546;48.714;8.738;2023-03-16T05:41:14;14.77;;;10.23;;
10985;SDS011;5546;48.714;8.738;2023-03-16T05:43:42;15.17;;;10.07;;
10985;SDS011;5546;48.714;8.738;2023-03-16T05:46:08;12.93;;;9.30;;
10985;SDS011;5546;48.714;8.738;2023-03-16T05:48:34;16.63;;;10.33;;
10985;SDS011;5546;48.714;8.738;2023-03-16T05:51:01;18.40;;;11.37;;
10985;SDS011;5546;48.714;8.738;2023-03-16T05:53:29;15.67;;;10.07;;
10985;SDS011;5546;48.714;8.738;2023-03-16T05:55:56;12.93;;;9.00;;
10985;SDS011;5546;48.714;8.738;2023-03-16T05:58:21;13.90;;;10.03;;
10985;SDS011;5546;48.714;8.738;2023-03-16T06:00:47;15.00;;;10.30;;
10985;SDS011;5546;48.714;8.738;2023-03-16T06:03:14;13.73;;;9.60;;
10985;SDS011;5546;48.714;8.738;2023-03-16T06:05:40;13.97;;;9.37;;
10985;SDS011;5546;48.714;8.738;2023-03-16T06:08:06;10.23;;;7.97;;
10985;SDS011;5546;48.714;8.738;2023-03-16T06:10:33;12.57;;;9.03;;
10985;SDS011;5546;48.714;8.738;2023-03-16T06:12:59;12.97;;;9.83;;
10985;SDS011;5546;48.714;8.738;2023-03-16T06:15:25;14.47;;;10.03;;
10985;SDS011;5546;48.714;8.738;2023-03-16T06:17:54;12.77;;;8.80;;
10985;SDS011;5546;48.714;8.738;2023-03-16T06:20:20;12.07;;;8.43;;
10985;SDS011;5546;48.714;8.738;2023-03-16T06:22:46;13.63;;;9.07;;
10985;SDS011;5546;48.714;8.738;2023-03-16T06:25:12;13.07;;;8.67;;
10985;SDS011;5546;48.714;8.738;2023-03-16T06:27:38;13.13;;;9.97;;
10985;SDS011;5546;48.714;8.738;2023-03-16T06:30:05;12.40;;;8.80;;
10985;SDS011;5546;48.714;8.738;2023-03-16T06:32:32;13.37;;;8.97;;
10985;SDS011;5546;48.714;8.738;2023-03-16T06:34:59;13.10;;;8.30;;
10985;SDS011;5546;48.714;8.738;2023-03-16T06:37:27;14.67;;;8.97;;
10985;SDS011;5546;48.714;8.738;2023-03-16T06:39:53;11.77;;;8.33;;
10985;SDS011;5546;48.714;8.738;2023-03-16T06:42:19;11.03;;;7.97;;
10985;SDS011;5546;48.714;8.738;2023-03-16T06:44:45;12.57;;;8.73;;
10985;SDS011;5546;48.714;8.738;2023-03-16T06:47:11;11.70;;;8.90;;
10985;SDS011;5546;48.714;8.738;2023-03-16T06:49:37;11.27;;;8.23;;
10985;SDS011;5546;48.714;8.738;2023-03-16T06:52:03;11.03;;;7.97;;
10985;SDS011;5546;48.714;8.738;2023-03-16T06:54:28;13.63;;;8.17;;
10985;SDS011;5546;48.714;8.738;2023-03-16T06:56:56;11.93;;;8.03;;
10985;SDS011;5546;48.714;8.738;2023-03-16T06:59:22;10.33;;;7.93;;
10985;SDS011;5546;48.714;8.738;2023-03-16T07:01:48;10.90;;;7.93;;
10985;SDS011;5546;48.714;8.738;2023-03-16T07:04:14;12.23;;;7.53;;
10985;SDS011;5546;48.714;8.738;2023-03-16T07:06:40;9.57;;;7.70;;
10985;SDS011;5546;48.714;8.738;2023-03-16T07:09:06;9.77;;;7.60;;
10985;SDS011;5546;48.714;8.738;2023-03-16T07:11:32;9.17;;;7.23;;
10985;SDS011;5546;48.714;8.738;2023-03-16T07:13:58;10.03;;;7.50;;
10985;SDS011;5546;48.714;8.738;2023-03-16T07:16:25;9.60;;;7.60;;
10985;SDS011;5546;48.714;8.738;2023-03-16T07:18:51;9.77;;;7.00;;
10985;SDS011;5546;48.714;8.738;2023-03-16T07:21:17;10.70;;;7.10;;
10985;SDS011;5546;48.714;8.738;2023-03-16T07:23:44;9.27;;;7.20;;
10985;SDS011;5546;48.714;8.738;2023-03-16T07:26:10;12.93;;;8.03;;
10985;SDS011;5546;48.714;8.738;2023-03-16T07:28:37;7.30;;;6.50;;
10985;SDS011;5546;48.714;8.738;2023-03-16T07:31:03;8.40;;;6.97;;
10985;SDS011;5546;48.714;8.738;2023-03-16T07:33:30;9.57;;;6.73;;
10985;SDS011;5546;48.714;8.738;2023-03-16T07:35:57;6.93;;;5.60;;
10985;SDS011;5546;48.714;8.738;2023-03-16T07:38:22;7.13;;;5.83;;
10985;SDS011;5546;48.714;8.738;2023-03-16T07:40:48;5.40;;;4.63;;
10985;SDS011;5546;48.714;8.738;2023-03-16T07:43:16;5.63;;;4.93;;
10985;SDS011;5546;48.714;8.738;2023-03-16T07:45:41;8.23;;;4.73;;
10985;SDS011;5546;48.714;8.738;2023-03-16T07:48:12;5.33;;;4.03;;
10985;SDS011;5546;48.714;8.738;2023-03-16T07:50:38;5.03;;;4.53;;
10985;SDS011;5546;48.714;8.738;2023-03-16T07:53:04;6.40;;;4.30;;
10985;SDS011;5546;48.714;8.738;2023-03-16T07:55:29;4.60;;;4.20;;
10985;SDS011;5546;48.714;8.738;2023-03-16T07:57:55;4.80;;;4.40;;
10985;SDS011;5546;48.714;8.738;2023-03-16T08:00:21;5.03;;;4.53;;
10985;SDS011;5546;48.714;8.738;2023-03-16T08:02:48;4.23;;;3.80;;
10985;SDS011;5546;48.714;8.738;2023-03-16T08:05:14;5.90;;;4.40;;
10985;SDS011;5546;48.714;8.738;2023-03-16T08:07:40;5.97;;;4.30;;
10985;SDS011;5546;48.714;8.738;2023-03-16T08:10:05;4.43;;;3.93;;
10985;SDS011;5546;48.714;8.738;2023-03-16T08:12:31;5.23;;;4.53;;
10985;SDS011;5546;48.714;8.738;2023-03-16T08:14:57;4.77;;;4.20;;
10985;SDS011;5546;48.714;8.738;2023-03-16T08:17:23;5.23;;;4.60;;
10985;SDS011;5546;48.714;8.738;2023-03-16T08:19:49;5.73;;;4.20;;
10985;SDS011;5546;48.714;8.738;2023-03-16T08:22:14;5.37;;;4.13;;
10985;SDS011;5546;48.714;8.738;2023-03-16T08:24:41;5.80;;;4.53;;
10985;SDS011;5546;48.714;8.738;2023-03-16T08:27:06;7.20;;;4.37;;
10985;SDS011;5546;48.714;8.738;2023-03-16T08:29:32;4.40;;;4.00;;
10985;SDS011;5546;48.714;8.738;2023-03-16T08:31:58;4.50;;;4.10;;
10985;SDS011;5546;48.714;8.738;2023-03-16T08:34:24;4.10;;;3.70;;
10985;SDS011;5546;48.714;8.738;2023-03-16T08:36:51;4.87;;;4.00;;
10985;SDS011;5546;48.714;8.738;2023-03-16T08:39:17;4.20;;;3.80;;
10985;SDS011;5546;48.714;8.738;2023-03-16T08:41:44;4.50;;;4.00;;
10985;SDS011;5546;48.714;8.738;2023-03-16T08:44:10;4.57;;;3.83;;
10985;SDS011;5546;48.714;8.738;2023-03-16T08:46:36;4.53;;;4.13;;
10985;SDS011;5546;48.714;8.738;2023-03-16T08:49:03;3.70;;;3.40;;
10985;SDS011;5546;48.714;8.738;2023-03-16T08:51:30;4.50;;;4.00;;
10985;SDS011;5546;48.714;8.738;2023-03-16T08:53:56;6.03;;;4.13;;
10985;SDS011;5546;48.714;8.738;2023-03-16T08:56:22;5.40;;;4.00;;
10985;SDS011;5546;48.714;8.738;2023-03-16T08:58:48;4.60;;;3.67;;
10985;SDS011;5546;48.714;8.738;2023-03-16T09:01:14;4.33;;;3.93;;
10985;SDS011;5546;48.714;8.738;2023-03-16T09:03:44;4.50;;;3.50;;
10985;SDS011;5546;48.714;8.738;2023-03-16T09:06:11;4.37;;;3.50;;
10985;SDS011;5546;48.714;8.738;2023-03-16T09:08:42;4.03;;;3.50;;
10985;SDS011;5546;48.714;8.738;2023-03-16T09:11:12;4.87;;;3.73;;
10985;SDS011;5546;48.714;8.738;2023-03-16T09:13:40;4.30;;;3.70;;
10985;SDS011;5546;48.714;8.738;2023-03-16T09:16:07;4.30;;;3.40;;
10985;SDS011;5546;48.714;8.738;2023-03-16T09:18:34;4.43;;;3.70;;
10985;SDS011;5546;48.714;8.738;2023-03-16T09:21:04;4.10;;;3.63;;
10985;SDS011;5546;48.714;8.738;2023-03-16T09:23:31;4.23;;;3.70;;
10985;SDS011;5546;48.714;8.738;2023-03-16T09:26:01;5.13;;;3.80;;
10985;SDS011;5546;48.714;8.738;2023-03-16T09:28:29;5.23;;;3.70;;
10985;SDS011;5546;48.714;8.738;2023-03-16T09:30:56;5.07;;;4.00;;
10985;SDS011;5546;48.714;8.738;2023-03-16T09:33:23;4.87;;;3.90;;
10985;SDS011;5546;48.714;8.738;2023-03-16T09:35:50;5.03;;;3.50;;
10985;SDS011;5546;48.714;8.738;2023-03-16T09:38:16;8.33;;;4.10;;
10985;SDS011;5546;48.714;8.738;2023-03-16T09:40:43;6.20;;;3.97;;
10985;SDS011;5546;48.714;8.738;2023-03-16T09:46:11;5.17;;;3.93;;
10985;SDS011;5546;48.714;8.738;2023-03-16T09:48:51;5.23;;;3.80;;
10985;SDS011;5546;48.714;8.738;2023-03-16T09:51:28;4.53;;;3.73;;
10985;SDS011;5546;48.714;8.738;2023-03-16T09:53:58;5.17;;;3.50;;
10985;SDS011;5546;48.714;8.738;2023-03-16T10:05:37;5.83;;;3.17;;
10985;SDS011;5546;48.714;8.738;2023-03-16T10:13:38;3.40;;;3.10;;
10985;SDS011;5546;48.714;8.738;2023-03-16T10:16:33;3.42;;;2.90;;
10985;SDS011;5546;48.714;8.738;2023-03-16T10:19:21;5.85;;;2.60;;
10985;SDS011;5546;48.714;8.738;2023-03-16T10:22:07;3.60;;;3.10;;
10985;SDS011;5546;48.714;8.738;2023-03-16T10:24:47;6.53;;;2.88;;
10985;SDS011;5546;48.714;8.738;2023-03-16T10:27:56;5.63;;;2.90;;
10985;SDS011;5546;48.714;8.738;2023-03-16T10:32:43;4.05;;;2.60;;
10985;SDS011;5546;48.714;8.738;2023-03-16T10:38:00;2.78;;;2.00;;
10985;SDS011;5546;48.714;8.738;2023-03-16T10:40:26;3.13;;;1.92;;
10985;SDS011;5546;48.714;8.738;2023-03-16T10:42:55;3.60;;;2.20;;
10985;SDS011;5546;48.714;8.738;2023-03-16T10:45:31;3.20;;;2.00;;
10985;SDS011;5546;48.714;8.738;2023-03-16T10:48:05;2.92;;;2.10;;
10985;SDS011;5546;48.714;8.738;2023-03-16T10:50:38;2.83;;;1.90;;
10985;SDS011;5546;48.714;8.738;2023-03-16T10:53:13;2.33;;;1.90;;
10985;SDS011;5546;48.714;8.738;2023-03-16T10:55:47;3.05;;;1.88;;
10985;SDS011;5546;48.714;8.738;2023-03-16T10:58:24;2.47;;;1.65;;
10985;SDS011;5546;48.714;8.738;2023-03-16T11:00:53;2.03;;;1.60;;
10985;SDS011;5546;48.714;8.738;2023-03-16T11:05:58;3.78;;;1.60;;
10985;SDS011;5546;48.714;8.738;2023-03-16T11:08:26;3.08;;;1.55;;
10985;SDS011;5546;48.714;8.738;2023-03-16T11:10:57;3.33;;;1.70;;
10985;SDS011;5546;48.714;8.738;2023-03-16T11:13:34;3.42;;;1.63;;
10985;SDS011;5546;48.714;8.738;2023-03-16T11:16:05;2.60;;;1.90;;
10985;SDS011;5546;48.714;8.738;2023-03-16T11:18:46;4.10;;;1.77;;
10985;SDS011;5546;48.714;8.738;2023-03-16T11:21:24;8.65;;;2.25;;
10985;SDS011;5546;48.714;8.738;2023-03-16T11:24:14;2.00;;;1.80;;
10985;SDS011;5546;48.714;8.738;2023-03-16T11:26:47;2.85;;;1.90;;
10985;SDS011;5546;48.714;8.738;2023-03-16T11:29:31;2.17;;;1.75;;
10985;SDS011;5546;48.714;8.738;2023-03-16T11:32:17;1.95;;;1.67;;
10985;SDS011;5546;48.714;8.738;2023-03-16T11:34:46;2.45;;;1.80;;
10985;SDS011;5546;48.714;8.738;2023-03-16T11:40:19;2.10;;;1.60;;
10985;SDS011;5546;48.714;8.738;2023-03-16T11:45:49;2.40;;;1.70;;
10985;SDS011;5546;48.714;8.738;2023-03-16T11:48:36;2.33;;;1.50;;
10985;SDS011;5546;48.714;8.738;2023-03-16T12:05:56;2.55;;;1.50;;
10985;SDS011;5546;48.714;8.738;2023-03-16T12:11:33;1.70;;;1.60;;
10985;SDS011;5546;48.714;8.738;2023-03-16T12:14:19;2.03;;;1.55;;
10985;SDS011;5546;48.714;8.738;2023-03-16T12:19:51;2.45;;;1.50;;
10985;SDS011;5546;48.714;8.738;2023-03-16T12:22:38;2.30;;;1.52;;
10985;SDS011;5546;48.714;8.738;2023-03-16T12:25:18;1.75;;;1.42;;
10985;SDS011;5546;48.714;8.738;2023-03-16T12:27:50;1.50;;;1.40;;
10985;SDS011;5546;48.714;8.738;2023-03-16T12:30:33;2.28;;;1.80;;
10985;SDS011;5546;48.714;8.738;2023-03-16T12:33:13;2.42;;;1.70;;
10985;SDS011;5546;48.714;8.738;2023-03-16T12:35:51;6.85;;;1.70;;
10985;SDS011;5546;48.714;8.738;2023-03-16T12:46:48;5.45;;;2.13;;
10985;SDS011;5546;48.714;8.738;2023-03-16T12:49:22;2.80;;;1.85;;
10985;SDS011;5546;48.714;8.738;2023-03-16T12:51:57;2.42;;;1.70;;
10985;SDS011;5546;48.714;8.738;2023-03-16T12:54:24;3.00;;;1.83;;
10985;SDS011;5546;48.714;8.738;2023-03-16T12:56:51;3.15;;;1.80;;
10985;SDS011;5546;48.714;8.738;2023-03-16T12:59:35;2.42;;;1.73;;
10985;SDS011;5546;48.714;8.738;2023-03-16T13:02:52;4.38;;;2.00;;
10985;SDS011;5546;48.714;8.738;2023-03-16T13:05:00;2.28;;;2.00;;
10985;SDS011;5546;48.714;8.738;2023-03-16T13:07:53;2.60;;;1.98;;
10985;SDS011;5546;48.714;8.738;2023-03-16T13:10:38;2.08;;;1.80;;
10985;SDS011;5546;48.714;8.738;2023-03-16T13:13:23;3.65;;;1.90;;
10985;SDS011;5546;48.714;8.738;2023-03-16T13:16:00;3.28;;;2.00;;
10985;SDS011;5546;48.714;8.738;2023-03-16T13:21:44;2.53;;;1.85;;
10985;SDS011;5546;48.714;8.738;2023-03-16T13:27:03;2.80;;;1.83;;
10985;SDS011;5546;48.714;8.738;2023-03-16T13:30:29;2.88;;;1.77;;
10985;SDS011;5546;48.714;8.738;2023-03-16T13:32:47;2.10;;;1.90;;
10985;SDS011;5546;48.714;8.738;2023-03-16T13:35:58;2.38;;;1.85;;
10985;SDS011;5546;48.714;8.738;2023-03-16T13:38:28;2.88;;;1.85;;
10985;SDS011;5546;48.714;8.738;2023-03-16T13:41:42;3.08;;;1.90;;
10985;SDS011;5546;48.714;8.738;2023-03-16T13:43:52;1.90;;;1.70;;
10985;SDS011;5546;48.714;8.738;2023-03-16T13:46:19;2.33;;;1.60;;
10985;SDS011;5546;48.714;8.738;2023-03-16T13:49:11;2.90;;;1.95;;
10985;SDS011;5546;48.714;8.738;2023-03-16T13:54:52;5.10;;;1.90;;
10985;SDS011;5546;48.714;8.738;2023-03-16T13:57:28;2.75;;;1.80;;
10985;SDS011;5546;48.714;8.738;2023-03-16T14:05:58;3.00;;;1.90;;
10985;SDS011;5546;48.714;8.738;2023-03-16T14:08:29;2.35;;;1.85;;
10985;SDS011;5546;48.714;8.738;2023-03-16T14:10:58;1.70;;;1.50;;
10985;SDS011;5546;48.714;8.738;2023-03-16T14:16:16;1.92;;;1.52;;
10985;SDS011;5546;48.714;8.738;2023-03-16T14:18:47;2.73;;;2.00;;
10985;SDS011;5546;48.714;8.738;2023-03-16T14:21:18;3.38;;;2.03;;
10985;SDS011;5546;48.714;8.738;2023-03-16T14:23:51;6.23;;;2.07;;
10985;SDS011;5546;48.714;8.738;2023-03-16T14:26:39;2.67;;;1.97;;
10985;SDS011;5546;48.714;8.738;2023-03-16T14:29:37;2.37;;;1.90;;
10985;SDS011;5546;48.714;8.738;2023-03-16T14:32:29;2.67;;;1.90;;
10985;SDS011;5546;48.714;8.738;2023-03-16T14:35:11;2.70;;;2.00;;
10985;SDS011;5546;48.714;8.738;2023-03-16T14:41:25;3.50;;;1.80;;
10985;SDS011;5546;48.714;8.738;2023-03-16T14:50:11;3.33;;;1.80;;
10985;SDS011;5546;48.714;8.738;2023-03-16T14:56:01;2.13;;;1.40;;
10985;SDS011;5546;48.714;8.738;2023-03-16T15:08:51;2.67;;;2.03;;
10985;SDS011;5546;48.714;8.738;2023-03-16T15:11:50;27.27;;;17.03;;
10985;SDS011;5546;48.714;8.738;2023-03-16T15:14:34;10.23;;;8.27;;
10985;SDS011;5546;48.714;8.738;2023-03-16T15:17:31;3.23;;;2.40;;
10985;SDS011;5546;48.714;8.738;2023-03-16T15:20:16;2.53;;;1.73;;
10985;SDS011;5546;48.714;8.738;2023-03-16T15:23:00;2.53;;;1.20;;
10985;SDS011;5546;48.714;8.738;2023-03-16T15:28:56;2.03;;;1.40;;
10985;SDS011;5546;48.714;8.738;2023-03-16T15:31:43;1.43;;;1.33;;
10985;SDS011;5546;48.714;8.738;2023-03-16T15:34:09;2.30;;;1.50;;
10985;SDS011;5546;48.714;8.738;2023-03-16T15:36:57;1.97;;;1.47;;
10985;SDS011;5546;48.714;8.738;2023-03-16T15:39:31;4.43;;;1.30;;
10985;SDS011;5546;48.714;8.738;2023-03-16T15:45:35;1.37;;;1.23;;
10985;SDS011;5546;48.714;8.738;2023-03-16T15:58:01;3.33;;;1.77;;
10985;SDS011;5546;48.714;8.738;2023-03-16T16:00:46;3.10;;;1.30;;
10985;SDS011;5546;48.714;8.738;2023-03-16T16:03:53;2.17;;;1.30;;
10985;SDS011;5546;48.714;8.738;2023-03-16T16:06:18;1.00;;;0.90;;
10985;SDS011;5546;48.714;8.738;2023-03-16T16:09:26;1.50;;;1.30;;
10985;SDS011;5546;48.714;8.738;2023-03-16T16:11:38;2.80;;;1.30;;
10985;SDS011;5546;48.714;8.738;2023-03-16T16:20:51;2.23;;;1.20;;
10985;SDS011;5546;48.714;8.738;2023-03-16T16:23:22;2.23;;;1.17;;
10985;SDS011;5546;48.714;8.738;2023-03-16T16:26:06;2.80;;;1.40;;
10985;SDS011;5546;48.714;8.738;2023-03-16T16:32:33;4.87;;;1.57;;
10985;SDS011;5546;48.714;8.738;2023-03-16T16:34:59;3.33;;;1.20;;
10985;SDS011;5546;48.714;8.738;2023-03-16T16:37:28;1.60;;;1.00;;
10985;SDS011;5546;48.714;8.738;2023-03-16T16:46:57;1.70;;;1.30;;
10985;SDS011;5546;48.714;8.738;2023-03-16T16:49:30;3.20;;;1.30;;
10985;SDS011;5546;48.714;8.738;2023-03-16T16:56:09;1.23;;;1.00;;
10985;SDS011;5546;48.714;8.738;2023-03-16T16:58:28;1.20;;;1.10;;
10985;SDS011;5546;48.714;8.738;2023-03-16T17:00:54;3.90;;;1.60;;
10985;SDS011;5546;48.714;8.738;2023-03-16T17:03:28;1.73;;;1.20;;
10985;SDS011;5546;48.714;8.738;2023-03-16T17:06:04;4.90;;;1.50;;
10985;SDS011;5546;48.714;8.738;2023-03-16T17:09:09;1.93;;;1.17;;
10985;SDS011;5546;48.714;8.738;2023-03-16T17:14:25;2.23;;;1.20;;
10985;SDS011;5546;48.714;8.738;2023-03-16T17:17:19;5.40;;;1.67;;
10985;SDS011;5546;48.714;8.738;2023-03-16T17:20:23;1.27;;;1.00;;
10985;SDS011;5546;48.714;8.738;2023-03-16T17:26:39;4.30;;;1.30;;
10985;SDS011;5546;48.714;8.738;2023-03-16T17:29:13;1.40;;;1.03;;
10985;SDS011;5546;48.714;8.738;2023-03-16T17:31:54;1.17;;;0.97;;
10985;SDS011;5546;48.714;8.738;2023-03-16T17:34:28;1.27;;;1.03;;
10985;SDS011;5546;48.714;8.738;2023-03-16T17:40:53;3.93;;;1.30;;
10985;SDS011;5546;48.714;8.738;2023-03-16T17:44:10;3.10;;;1.10;;
10985;SDS011;5546;48.714;8.738;2023-03-16T17:50:48;1.13;;;1.03;;
10985;SDS011;5546;48.714;8.738;2023-03-16T17:56:23;1.70;;;1.20;;
10985;SDS011;5546;48.714;8.738;2023-03-16T17:58:54;4.13;;;1.30;;
10985;SDS011;5546;48.714;8.738;2023-03-16T18:02:09;3.17;;;1.10;;
10985;SDS011;5546;48.714;8.738;2023-03-16T18:09:01;3.50;;;1.50;;
10985;SDS011;5546;48.714;8.738;2023-03-16T18:45:33;3.17;;;1.30;;
10985;SDS011;5546;48.714;8.738;2023-03-16T18:47:59;2.73;;;1.77;;
10985;SDS011;5546;48.714;8.738;2023-03-16T18:50:26;2.87;;;1.53;;
10985;SDS011;5546;48.714;8.738;2023-03-16T18:52:54;4.40;;;1.40;;
10985;SDS011;5546;48.714;8.738;2023-03-16T18:55:22;2.53;;;1.40;;
10985;SDS011;5546;48.714;8.738;2023-03-16T18:57:59;3.03;;;1.50;;
10985;SDS011;5546;48.714;8.738;2023-03-16T19:00:25;4.73;;;1.73;;